createdAt,value
2018-04-13T00:04:20.867Z,16.8
2018-04-13T00:14:19.539Z,16.8
2018-04-13T00:24:18.742Z,16.7
2018-04-13T00:34:18.536Z,16.5
2018-04-13T00:44:17.319Z,16.4
2018-04-13T00:54:16.937Z,16.4
2018-04-13T01:04:16.161Z,16.4
2018-04-13T01:14:15.172Z,16.4
2018-04-13T01:24:14.016Z,16.4
2018-04-13T01:34:13.569Z,16.3
2018-04-13T01:44:12.717Z,16.2
2018-04-13T01:54:11.994Z,16.1
2018-04-13T02:04:11.206Z,16.1
2018-04-13T02:14:10.463Z,16.1
2018-04-13T02:24:09.399Z,16
2018-04-13T02:34:09.147Z,15.8
2018-04-13T02:44:07.737Z,15.8
2018-04-13T02:54:07.280Z,15.8
2018-04-13T03:04:06.741Z,15.7
2018-04-13T03:14:05.697Z,15.6
2018-04-13T03:24:04.864Z,15.5
2018-04-13T03:34:04.371Z,15.5
2018-04-13T03:44:03.397Z,15.4
2018-04-13T03:54:02.540Z,14.5
2018-04-13T04:04:01.820Z,14.3
2018-04-13T04:14:00.674Z,13.8
2018-04-13T04:23:59.892Z,13.7
2018-04-13T04:33:59.450Z,14.1
2018-04-13T04:43:58.594Z,14.8
2018-04-13T04:53:58.163Z,15.5
2018-04-13T05:03:56.790Z,16.4
2018-04-13T05:13:55.987Z,17.3
2018-04-13T05:23:55.577Z,18.3
2018-04-13T05:33:54.727Z,19.1
2018-04-13T05:43:53.981Z,20.2
2018-04-13T05:53:53.121Z,21.1
2018-04-13T06:03:52.465Z,21.8
2018-04-13T06:13:51.532Z,22.4
2018-04-13T06:23:50.787Z,23.3
2018-04-13T06:33:49.969Z,23.6
2018-04-13T06:43:49.545Z,24.2
2018-04-13T06:53:48.424Z,24.3
2018-04-13T07:03:47.397Z,25.7
2018-04-13T07:13:46.534Z,25.7
2018-04-13T07:23:46.096Z,25.9
2018-04-13T07:33:45.251Z,27
2018-04-13T07:43:44.505Z,27.5
2018-04-13T07:53:43.726Z,28.9
2018-04-13T08:03:42.880Z,30.4
2018-04-13T08:13:42.140Z,30.3
2018-04-13T08:23:41.664Z,31.3
2018-04-13T08:33:40.559Z,31.5
2018-04-13T08:43:39.848Z,31.1
2018-04-13T08:53:38.983Z,30.9
2018-04-13T09:03:38.172Z,31.4
2018-04-13T09:13:37.432Z,31.3
2018-04-13T09:23:36.601Z,31.3
2018-04-13T09:33:35.610Z,31.1
2018-04-13T09:43:35.091Z,31.1
2018-04-13T09:53:34.046Z,31.6
2018-04-13T10:03:33.499Z,31.4
2018-04-13T10:13:33.260Z,30.8
2018-04-13T10:23:31.923Z,29.7
2018-04-13T10:33:30.861Z,29.4
2018-04-13T10:43:30.349Z,28.5
2018-04-13T10:53:30.178Z,28.6
2018-04-13T11:03:28.762Z,28.3
2018-04-13T11:13:27.982Z,27.9
2018-04-13T11:23:27.234Z,28.3
2018-04-13T11:33:26.153Z,27.6
2018-04-13T11:43:25.646Z,27.4
2018-04-13T11:53:24.753Z,27.3
2018-04-13T12:03:24.061Z,27.1
2018-04-13T12:13:23.555Z,26.3
2018-04-13T12:23:22.766Z,26.3
2018-04-13T12:33:21.715Z,25.9
2018-04-13T12:43:20.684Z,25.6
2018-04-13T12:53:20.150Z,25.4
2018-04-13T13:03:19.347Z,25.1
2018-04-13T13:13:18.577Z,25.3
2018-04-13T13:23:17.830Z,24.8
2018-04-13T13:33:17.090Z,25.1
2018-04-13T13:43:16.336Z,25.1
2018-04-13T13:53:15.214Z,24.9
2018-04-13T14:03:14.697Z,24.9
2018-04-13T14:13:13.869Z,24.8
2018-04-13T14:23:13.075Z,24.9
2018-04-13T14:33:12.297Z,25.1
2018-04-13T14:43:11.240Z,25.1
2018-04-13T14:53:10.747Z,25.3
2018-04-13T15:03:10.045Z,25.1
2018-04-13T15:13:09.180Z,24.9
2018-04-13T15:23:08.150Z,24.8
2018-04-13T15:33:07.934Z,24.4
2018-04-13T15:43:07.088Z,24.1
2018-04-13T15:53:06.071Z,23.8
2018-04-13T16:03:05.236Z,23.6
2018-04-13T16:13:04.449Z,23.1
2018-04-13T16:23:03.670Z,22.5
2018-04-13T16:33:02.974Z,22.1
2018-04-13T16:43:01.831Z,21.7
2018-04-13T16:53:01.433Z,21.3
2018-04-13T17:03:00.941Z,21.1
2018-04-13T17:13:00.840Z,21.1
2018-04-13T17:23:00.190Z,21.1
2018-04-13T17:32:59.752Z,21.1
2018-04-13T17:42:58.369Z,21
2018-04-13T17:52:57.924Z,21
2018-04-13T18:02:57.060Z,20.9
2018-04-13T18:12:56.648Z,20.8
2018-04-13T18:22:55.483Z,20.6
2018-04-13T18:32:54.740Z,20.4
2018-04-13T18:42:54.316Z,20.2
2018-04-13T18:52:53.429Z,20.1
2018-04-13T19:02:52.467Z,20.1
2018-04-13T19:12:51.846Z,20
2018-04-13T19:22:50.837Z,19.9
2018-04-13T19:32:50.370Z,19.9
2018-04-13T19:42:49.505Z,19.8
2018-04-13T19:52:48.473Z,19.6
2018-04-13T20:02:47.935Z,19.4
2018-04-13T20:12:46.912Z,19.3
2018-04-13T20:22:46.122Z,19
2018-04-13T20:32:45.321Z,18.8
2018-04-13T20:42:44.313Z,18.8
2018-04-13T20:52:43.751Z,18.6
2018-04-13T21:02:42.946Z,18.6
2018-04-13T21:12:42.291Z,18.5
2018-04-13T21:22:41.685Z,18.4
2018-04-13T21:32:40.344Z,18.2
2018-04-13T21:42:39.930Z,18
2018-04-13T21:52:39.421Z,17.9
2018-04-13T22:02:38.285Z,17.8
2018-04-13T22:12:37.181Z,17.6
2018-04-13T22:22:36.759Z,17.6
2018-04-13T22:32:35.907Z,17.6
2018-04-13T22:42:35.108Z,17.5
2018-04-13T22:52:34.583Z,17.6
2018-04-13T23:02:33.572Z,17.5
2018-04-13T23:12:32.501Z,17.4
2018-04-13T23:22:31.983Z,17.4
2018-04-13T23:32:31.531Z,17.4
2018-04-13T23:42:30.429Z,17.3
2018-04-13T23:52:29.882Z,17.1
